createdAt,value
2018-05-27T00:03:50.792Z,"    0"
2018-05-27T00:08:47.558Z,"    0"
2018-05-27T00:13:43.001Z,"    0"
2018-05-27T00:18:38.579Z,"    0"
2018-05-27T00:23:34.462Z,"    0"
2018-05-27T00:28:31.301Z,"    0"
2018-05-27T00:33:27.139Z,"    0"
2018-05-27T00:38:23.238Z,"    0"
2018-05-27T00:43:19.247Z,"    0"
2018-05-27T00:48:15.177Z,"    0"
2018-05-27T00:53:10.969Z,"    0"
2018-05-27T00:58:06.687Z,"    0"
2018-05-27T01:03:03.709Z,"    0"
2018-05-27T01:08:00.526Z,"    0"
2018-05-27T01:12:56.433Z,"    0"
2018-05-27T01:17:53.203Z,"    0"
2018-05-27T01:22:50.405Z,"    0"
2018-05-27T01:27:46.934Z,"    0"
2018-05-27T01:32:42.581Z,"    0"
2018-05-27T01:37:39.562Z,"    0"
2018-05-27T01:42:35.071Z,"    0"
2018-05-27T01:47:31.525Z,"    0"
2018-05-27T01:52:27.278Z,"    0"
2018-05-27T01:57:23.160Z,"    0"
2018-05-27T02:02:19.205Z,"    0"
2018-05-27T02:07:15.911Z,"    0"
2018-05-27T02:12:12.109Z,"    0"
2018-05-27T02:17:07.883Z,"    0"
2018-05-27T02:22:03.603Z,"    0"
2018-05-27T02:26:59.346Z,"    0"
2018-05-27T02:31:55.222Z,"    0"
2018-05-27T02:36:51.025Z,"    0"
2018-05-27T02:41:47.944Z,"    0"
2018-05-27T02:46:44.531Z,"    0"
2018-05-27T02:51:39.836Z,"    0"
2018-05-27T02:56:35.858Z,"    0"
2018-05-27T03:01:31.917Z,"    0"
2018-05-27T03:06:27.716Z,"    0"
2018-05-27T03:11:24.612Z,"    0"
2018-05-27T03:16:21.548Z,"    0"
2018-05-27T03:21:17.150Z,"    5"
2018-05-27T03:26:13.379Z,"    5"
2018-05-27T03:31:10.117Z,"    5"
2018-05-27T03:36:05.526Z,"   10"
2018-05-27T03:41:01.547Z,"   15"
2018-05-27T03:45:57.657Z,"   20"
2018-05-27T03:50:54.719Z,"   20"
2018-05-27T03:55:50.429Z,"   25"
2018-05-27T04:00:46.020Z,"   30"
2018-05-27T04:05:42.969Z,"   35"
2018-05-27T04:10:38.908Z,"   40"
2018-05-27T04:15:34.896Z,"   40"
2018-05-27T04:20:31.548Z,"   45"
2018-05-27T04:25:28.076Z,"   50"
2018-05-27T04:30:23.866Z,"   85"
2018-05-27T04:35:21.599Z,"  105"
2018-05-27T04:40:17.694Z,"  120"
2018-05-27T04:45:14.234Z,"  155"
2018-05-27T04:50:11.150Z,"  165"
2018-05-27T04:55:07.314Z,"  160"
2018-05-27T05:00:05.269Z,"  195"
2018-05-27T05:05:01.517Z,"  245"
2018-05-27T05:09:58.201Z,"  235"
2018-05-27T05:14:55.140Z,"  245"
2018-05-27T05:19:51.239Z,"  190"
2018-05-27T05:24:46.908Z,"  175"
2018-05-27T05:29:42.659Z,"  190"
2018-05-27T05:34:38.789Z,"  270"
2018-05-27T05:39:35.659Z,"  380"
2018-05-27T05:44:32.417Z,"  245"
2018-05-27T05:49:29.039Z,"  290"
2018-05-27T05:54:24.569Z,"  205"
2018-05-27T05:59:20.295Z,"  225"
2018-05-27T06:04:17.012Z,"  220"
2018-05-27T06:09:12.224Z,"  220"
2018-05-27T06:14:13.570Z,"  225"
2018-05-27T06:19:08.411Z,"  225"
2018-05-27T06:24:04.340Z,"  220"
2018-05-27T06:29:01.807Z,"  245"
2018-05-27T06:33:57.361Z,"  220"
2018-05-27T06:38:53.283Z,"  220"
2018-05-27T06:43:49.084Z,"  235"
2018-05-27T06:48:45.382Z,"  230"
2018-05-27T06:53:41.557Z,"  235"
2018-05-27T06:58:37.905Z,"  235"
2018-05-27T07:03:33.911Z,"  240"
2018-05-27T07:08:29.955Z,"  255"
2018-05-27T07:13:27.065Z,"  245"
2018-05-27T07:18:24.014Z,"  245"
2018-05-27T07:23:19.802Z,"  250"
2018-05-27T07:28:16.066Z,"  260"
2018-05-27T07:33:12.335Z,"  250"
2018-05-27T07:38:09.041Z,"  250"
2018-05-27T07:43:05.351Z,"  280"
2018-05-27T07:48:01.849Z,"  995"
2018-05-27T07:53:01.505Z," 1260"
2018-05-27T07:57:59.744Z," 1220"
2018-05-27T08:02:58.549Z," 1245"
2018-05-27T08:07:55.876Z," 1240"
2018-05-27T08:12:52.758Z," 1150"
2018-05-27T08:17:49.894Z," 1240"
2018-05-27T08:22:45.499Z," 1295"
2018-05-27T08:27:42.042Z," 1295"
2018-05-27T08:32:39.422Z," 1365"
2018-05-27T08:37:35.768Z," 1460"
2018-05-27T08:42:32.816Z," 1490"
2018-05-27T08:47:30.875Z," 1450"
2018-05-27T08:52:27.233Z," 1460"
2018-05-27T08:57:24.050Z," 1310"
2018-05-27T09:02:20.025Z," 1465"
2018-05-27T09:07:15.806Z," 1330"
2018-05-27T09:12:11.457Z," 1545"
2018-05-27T09:17:07.521Z," 1540"
2018-05-27T09:22:04.125Z," 1460"
2018-05-27T09:27:00.459Z," 1150"
2018-05-27T09:31:56.241Z," 1335"
2018-05-27T09:36:53.202Z," 1530"
2018-05-27T09:41:49.291Z," 1585"
2018-05-27T09:46:45.090Z," 1505"
2018-05-27T09:51:42.618Z," 1550"
2018-05-27T09:56:39.320Z," 1610"
2018-05-27T10:01:36.654Z," 1415"
2018-05-27T10:06:33.009Z," 1640"
2018-05-27T10:11:30.446Z," 1470"
2018-05-27T10:16:26.268Z," 1700"
2018-05-27T10:21:22.578Z," 1525"
2018-05-27T10:26:18.203Z," 1310"
2018-05-27T10:31:14.217Z," 1185"
2018-05-27T10:36:10.011Z," 1405"
2018-05-27T10:41:08.048Z," 1640"
2018-05-27T10:46:06.281Z," 1350"
2018-05-27T10:51:02.003Z," 1495"
2018-05-27T10:55:58.893Z," 1925"
2018-05-27T11:00:57.044Z," 1865"
2018-05-27T11:05:53.838Z," 1775"
2018-05-27T11:10:49.826Z," 1740"
2018-05-27T11:15:46.904Z," 1800"
2018-05-27T11:20:42.847Z," 1630"
2018-05-27T11:25:38.227Z," 1675"
2018-05-27T11:30:35.097Z," 1415"
2018-05-27T11:35:30.652Z," 1540"
2018-05-27T11:40:25.741Z,"  595"
2018-05-27T11:45:20.155Z," 1635"
2018-05-27T11:50:18.738Z,"  685"
2018-05-27T11:55:12.900Z,"  815"
2018-05-27T12:00:08.959Z," 1105"
2018-05-27T12:05:06.064Z," 1645"
2018-05-27T12:10:05.000Z,"  965"
2018-05-27T12:15:00.758Z," 1165"
2018-05-27T12:19:56.930Z," 1545"
2018-05-27T12:24:53.669Z," 1465"
2018-05-27T12:29:47.330Z,"  455"
2018-05-27T12:34:42.033Z,"  470"
2018-05-27T12:39:37.876Z,"  460"
2018-05-27T12:44:33.015Z," 1275"
2018-05-27T12:49:29.980Z,"  410"
2018-05-27T12:54:25.731Z,"  405"
2018-05-27T12:59:21.360Z,"  465"
2018-05-27T13:04:18.518Z," 1710"
2018-05-27T13:09:17.224Z," 1575"
2018-05-27T13:14:14.918Z,"  920"
2018-05-27T13:19:10.631Z," 1535"
2018-05-27T13:24:07.489Z," 1560"
2018-05-27T13:29:03.493Z," 1550"
2018-05-27T13:33:59.117Z,"  445"
2018-05-27T13:38:53.752Z,"  215"
2018-05-27T13:43:48.184Z,"  140"
2018-05-27T13:48:43.494Z,"  120"
2018-05-27T13:53:39.210Z,"  120"
2018-05-27T13:58:34.663Z,"  100"
2018-05-27T14:03:30.195Z,"   90"
2018-05-27T14:08:25.839Z,"   95"
2018-05-27T14:13:22.604Z,"  110"
2018-05-27T14:18:19.311Z,"  120"
2018-05-27T14:23:14.915Z,"  130"
2018-05-27T14:28:10.983Z,"  130"
2018-05-27T14:33:08.166Z,"  130"
2018-05-27T14:38:04.449Z,"  130"
2018-05-27T14:43:00.549Z,"  125"
2018-05-27T14:52:56.919Z,"  160"
2018-05-27T14:57:52.899Z,"  155"
2018-05-27T15:02:49.042Z,"  145"
2018-05-27T15:07:45.240Z,"  120"
2018-05-27T15:12:41.284Z,"   70"
2018-05-27T15:17:36.875Z,"   40"
2018-05-27T15:22:33.309Z,"   45"
2018-05-27T15:27:29.454Z,"   55"
2018-05-27T15:32:24.800Z,"   55"
2018-05-27T15:37:21.498Z,"   50"
2018-05-27T15:42:16.999Z,"   60"
2018-05-27T15:47:13.071Z,"   70"
2018-05-27T15:52:08.895Z,"   55"
2018-05-27T15:57:04.791Z,"   60"
2018-05-27T16:02:00.715Z,"   75"
2018-05-27T16:06:57.910Z,"   70"
2018-05-27T16:11:54.696Z,"   85"
2018-05-27T16:16:50.390Z,"   95"
2018-05-27T16:21:47.754Z,"   95"
2018-05-27T16:26:43.995Z,"   80"
2018-05-27T16:31:40.491Z,"   65"
2018-05-27T16:36:37.364Z,"   60"
2018-05-27T16:41:32.902Z,"   45"
2018-05-27T16:46:28.547Z,"   35"
2018-05-27T16:51:24.593Z,"   40"
2018-05-27T16:56:21.467Z,"   40"
2018-05-27T17:01:17.541Z,"   40"
2018-05-27T17:06:13.320Z,"   40"
2018-05-27T17:11:09.224Z,"   40"
2018-05-27T17:16:05.368Z,"   45"
2018-05-27T17:21:02.509Z,"   55"
2018-05-27T17:25:59.173Z,"   50"
2018-05-27T17:30:55.840Z,"   55"
2018-05-27T17:35:51.797Z,"   55"
2018-05-27T17:40:48.000Z,"   55"
2018-05-27T17:45:45.102Z,"   55"
2018-05-27T17:50:42.036Z,"   60"
2018-05-27T17:55:37.918Z,"   75"
2018-05-27T18:00:35.372Z,"   80"
2018-05-27T18:05:31.025Z,"   90"
2018-05-27T18:10:27.801Z,"   90"
2018-05-27T18:15:23.607Z,"   85"
2018-05-27T18:20:19.552Z,"   65"
2018-05-27T18:25:15.622Z,"   45"
2018-05-27T18:30:11.497Z,"   35"
2018-05-27T18:35:07.312Z,"   35"
2018-05-27T18:40:02.937Z,"   30"
2018-05-27T18:45:00.066Z,"   25"
2018-05-27T18:49:55.457Z,"   25"
2018-05-27T18:54:52.355Z,"   15"
2018-05-27T18:59:48.018Z,"   15"
2018-05-27T19:04:44.240Z,"    5"
2018-05-27T19:09:40.137Z,"    5"
2018-05-27T19:14:36.209Z,"    0"
2018-05-27T19:19:32.208Z,"    0"
2018-05-27T19:24:27.873Z,"    0"
2018-05-27T19:29:23.764Z,"    0"
2018-05-27T19:34:19.776Z,"    0"
2018-05-27T19:39:16.090Z,"    0"
2018-05-27T19:44:13.018Z,"    0"
2018-05-27T19:49:09.013Z,"    0"
2018-05-27T19:54:05.037Z,"    0"
2018-05-27T19:59:01.821Z,"    0"
2018-05-27T20:03:57.483Z,"    0"
2018-05-27T20:08:53.359Z,"    0"
2018-05-27T20:13:50.205Z,"    0"
2018-05-27T20:18:45.632Z,"    0"
2018-05-27T20:23:42.386Z,"    0"
2018-05-27T20:28:39.153Z,"    0"
2018-05-27T20:33:35.171Z,"    0"
2018-05-27T20:38:31.017Z,"    0"
2018-05-27T20:43:26.839Z,"    0"
2018-05-27T20:48:23.655Z,"    0"
2018-05-27T20:53:20.374Z,"    0"
2018-05-27T20:58:15.908Z,"    0"
2018-05-27T21:03:11.867Z,"    0"
2018-05-27T21:08:07.764Z,"    0"
2018-05-27T21:13:03.987Z,"    0"
2018-05-27T21:17:59.970Z,"    0"
2018-05-27T21:22:55.639Z,"    0"
2018-05-27T21:27:51.557Z,"    0"
2018-05-27T21:32:47.378Z,"    0"
2018-05-27T21:37:43.240Z,"    0"
2018-05-27T21:42:39.193Z,"    0"
2018-05-27T21:47:35.211Z,"    0"
2018-05-27T21:52:31.141Z,"    0"
2018-05-27T21:57:28.095Z,"    0"
2018-05-27T22:02:24.803Z,"    0"
2018-05-27T22:07:21.465Z,"    0"
2018-05-27T22:12:17.167Z,"    0"
2018-05-27T22:17:13.958Z,"    0"
2018-05-27T22:22:09.774Z,"    0"
2018-05-27T22:27:05.688Z,"    0"
2018-05-27T22:32:01.554Z,"    0"
2018-05-27T22:36:57.372Z,"    0"
2018-05-27T22:41:53.257Z,"    0"
2018-05-27T22:46:50.169Z,"    0"
2018-05-27T22:51:46.740Z,"    0"
2018-05-27T22:56:42.407Z,"    0"
2018-05-27T23:01:38.371Z,"    0"
2018-05-27T23:06:34.241Z,"    0"
2018-05-27T23:11:30.092Z,"    0"
2018-05-27T23:16:25.988Z,"    0"
2018-05-27T23:21:22.262Z,"    0"
2018-05-27T23:26:18.213Z,"    0"
2018-05-27T23:31:14.023Z,"    0"
2018-05-27T23:36:10.472Z,"    0"
2018-05-27T23:41:06.633Z,"    0"
2018-05-27T23:46:03.735Z,"    0"
2018-05-27T23:51:00.296Z,"    0"
2018-05-27T23:55:55.804Z,"    0"
